AAY1045 KPIE-KSGF
Flight info
| Callsign | AAY1045 |
|---|---|
| Flight time | N/A |
| Altitude | 36000 |
| Route | ENDED2 LACEN PATOY Q116 JAWJA MGMRY MEMFS |
| Aircraft | A319/M-SDE3FGHIRWY/LB1 |
Departure
| Time | 2026-04-23 12:06 |
|---|---|
| Airport | St. Petersburg Clearwater International Airport (KPIE) |
Arrival
| Time | N/A |
|---|---|
| Airport | Springfield Branson National Airport (KSGF) |
| Time | Latitude | Longitude | Altitude | Speed | Heading |
|---|---|---|---|---|---|
| 2026-04-23 11:42 | 27.90698 | -82.69026 | 24 ft | 0 kts | 244° |
| 2026-04-23 11:56 | 27.90706 | -82.69008 | 24 ft | 3 kts | 244° |
| 2026-04-23 11:57 | 27.90714 | -82.68989 | 28 ft | 3 kts | 244° |
| 2026-04-23 11:57 | 27.90722 | -82.68970 | 25 ft | 3 kts | 238° |
| 2026-04-23 11:57 | 27.90736 | -82.68955 | 26 ft | 3 kts | 194° |
| 2026-04-23 11:57 | 27.90754 | -82.68952 | 26 ft | 3 kts | 171° |
| 2026-04-23 11:58 | 27.90763 | -82.68953 | 25 ft | 0 kts | 171° |
| 2026-04-23 12:01 | 27.90760 | -82.68953 | 25 ft | 2 kts | 171° |
| 2026-04-23 12:01 | 27.90732 | -82.68948 | 26 ft | 6 kts | 171° |
| 2026-04-23 12:02 | 27.90676 | -82.68938 | 26 ft | 9 kts | 171° |
| 2026-04-23 12:02 | 27.90612 | -82.68927 | 24 ft | 9 kts | 171° |
| 2026-04-23 12:02 | 27.90536 | -82.68914 | 24 ft | 13 kts | 171° |
| 2026-04-23 12:02 | 27.90442 | -82.68898 | 24 ft | 14 kts | 171° |
| 2026-04-23 12:03 | 27.90342 | -82.68881 | 24 ft | 15 kts | 171° |
| 2026-04-23 12:03 | 27.90239 | -82.68862 | 24 ft | 15 kts | 171° |
| 2026-04-23 12:03 | 27.90129 | -82.68860 | 22 ft | 17 kts | 182° |
| 2026-04-23 12:03 | 27.90007 | -82.68865 | 21 ft | 18 kts | 182° |
| 2026-04-23 12:04 | 27.89887 | -82.68855 | 23 ft | 17 kts | 171° |
| 2026-04-23 12:04 | 27.89773 | -82.68836 | 24 ft | 17 kts | 171° |
| 2026-04-23 12:04 | 27.89693 | -82.68785 | 24 ft | 11 kts | 102° |
| 2026-04-23 12:04 | 27.89703 | -82.68691 | 21 ft | 13 kts | 81° |
| 2026-04-23 12:05 | 27.89724 | -82.68620 | 21 ft | 7 kts | 31° |
| 2026-04-23 12:05 | 27.89751 | -82.68619 | 19 ft | 0 kts | 350° |
| 2026-04-23 12:05 | 27.89752 | -82.68619 | 19 ft | 1 kts | 350° |
| 2026-04-23 12:05 | 27.89820 | -82.68632 | 19 ft | 37 kts | 351° |
| 2026-04-23 12:06 | 27.90327 | -82.68719 | 23 ft | 107 kts | 351° |
| 2026-04-23 12:06 | 27.91260 | -82.68880 | 23 ft | 163 kts | 351° |
| 2026-04-23 12:06 | 27.93574 | -82.69289 | 1148 ft | 173 kts | 354° |
| 2026-04-23 12:07 | 27.94844 | -82.69236 | 1447 ft | 195 kts | 18° |
| 2026-04-23 12:07 | 27.96207 | -82.68712 | 1671 ft | 223 kts | 21° |
| 2026-04-23 12:07 | 27.97768 | -82.68097 | 2049 ft | 249 kts | 21° |
| 2026-04-23 12:07 | 27.99456 | -82.67440 | 2764 ft | 261 kts | 19° |
| 2026-04-23 12:08 | 28.01271 | -82.67161 | 3679 ft | 267 kts | 358° |
| 2026-04-23 12:08 | 28.03122 | -82.67347 | 4695 ft | 267 kts | 356° |
| 2026-04-23 12:08 | 28.04973 | -82.67553 | 5714 ft | 268 kts | 355° |
| 2026-04-23 12:08 | 28.06841 | -82.67771 | 6668 ft | 271 kts | 355° |
| 2026-04-23 12:09 | 28.08731 | -82.68002 | 7504 ft | 275 kts | 354° |
| 2026-04-23 12:09 | 28.10618 | -82.68412 | 8395 ft | 278 kts | 347° |
| 2026-04-23 12:09 | 28.12487 | -82.68908 | 9234 ft | 281 kts | 346° |
| 2026-04-23 12:09 | 28.14431 | -82.69437 | 10089 ft | 286 kts | 345° |
| 2026-04-23 12:10 | 28.16388 | -82.69974 | 10543 ft | 304 kts | 345° |
| 2026-04-23 12:10 | 28.18510 | -82.70556 | 10886 ft | 324 kts | 345° |
| 2026-04-23 12:10 | 28.20752 | -82.71169 | 11371 ft | 336 kts | 345° |
| 2026-04-23 12:10 | 28.23047 | -82.71792 | 12077 ft | 342 kts | 345° |
| 2026-04-23 12:11 | 28.25373 | -82.72421 | 12820 ft | 346 kts | 344° |
| 2026-04-23 12:11 | 28.27728 | -82.73058 | 13560 ft | 350 kts | 344° |
| 2026-04-23 12:11 | 28.30105 | -82.73702 | 14254 ft | 353 kts | 344° |
| 2026-04-23 12:11 | 28.32508 | -82.74355 | 14896 ft | 357 kts | 344° |
| 2026-04-23 12:12 | 28.34146 | -82.74801 | 15322 ft | 359 kts | 343° |
| 2026-04-23 12:12 | 28.36551 | -82.75456 | 15964 ft | 362 kts | 343° |
| 2026-04-23 12:12 | 28.39012 | -82.76124 | 16603 ft | 365 kts | 343° |
| 2026-04-23 12:12 | 28.41493 | -82.76796 | 17238 ft | 368 kts | 343° |
| 2026-04-23 12:13 | 28.43997 | -82.77472 | 17870 ft | 371 kts | 343° |
| 2026-04-23 12:13 | 28.46522 | -82.78158 | 18497 ft | 375 kts | 343° |
| 2026-04-23 12:13 | 28.49064 | -82.78850 | 19049 ft | 377 kts | 343° |
| 2026-04-23 12:13 | 28.51627 | -82.79551 | 19600 ft | 380 kts | 343° |
| 2026-04-23 12:14 | 28.54205 | -82.80257 | 20154 ft | 383 kts | 343° |
| 2026-04-23 12:14 | 28.56805 | -82.80965 | 20715 ft | 385 kts | 343° |
| 2026-04-23 12:14 | 28.59440 | -82.81608 | 21248 ft | 389 kts | 346° |
| 2026-04-23 12:14 | 28.62122 | -82.82136 | 21791 ft | 393 kts | 347° |
| 2026-04-23 12:15 | 28.65762 | -82.82748 | 22505 ft | 397 kts | 348° |
| 2026-04-23 12:15 | 28.67583 | -82.83037 | 22853 ft | 399 kts | 348° |
| 2026-04-23 12:15 | 28.70343 | -82.83484 | 23347 ft | 402 kts | 348° |